SEATTLE-TACOMA INTL

KSEA (SEA)
Seattle, Washington
Towered

Vatsim Metar:
KSEA 280453Z 06003KT 10SM OVC065 06/02 A2960 RMK AO2 RAE07 SLP030 P0001 T00560022

No ATC Online

Traffic

Inbound:
Ident
Type
Name
ETA
Phase
DAL1268
B738/L
TheArcher
06:04 Z
Cruse
ASA705
B738/L
Duy Nguyen KMYF
06:35 Z
Cruse

Outbound:
Ident
Type
Name
Destination
Phase